Time;durP1;ratioP1;P1;durP2;ratioP2;P2;SDS_P1;SDS_P2;PMS_P1;PMS_P2;Temp;Humidity;BMP_temperature;BMP_pressure;BME280_temperature;BME280_humidity;BME280_pressure;Samples;Min_cycle;Max_cycle;Signal;HPM_P1;HPM_P2
2022/08/12 00:44:55;;;;;;;2.45;1.40;;;21.10;99.90;;;;;;5005994;28;20605;-75
2022/08/12 00:47:39;;;;;;;5.65;1.40;;;21.00;99.90;;;;;;4988620;28;20279;-75
2022/08/12 00:50:26;;;;;;;4.78;1.58;;;21.00;99.90;;;;;;5001841;28;20227;-75
2022/08/12 00:53:11;;;;;;;4.25;1.40;;;21.00;99.90;;;;;;4990976;28;20271;-74
2022/08/12 00:55:58;;;;;;;4.40;1.50;;;21.00;99.90;;;;;;4987745;28;20196;-75
2022/08/12 00:58:49;;;;;;;3.83;1.42;;;20.90;99.90;;;;;;4986218;28;20248;-75
2022/08/12 01:01:42;;;;;;;5.57;1.83;;;20.80;99.90;;;;;;4991057;28;20227;-76
2022/08/12 01:13:47;;;;;;;10.93;1.65;;;20.70;99.90;;;;;;5005504;28;20280;-75
2022/08/12 01:16:32;;;;;;;2.90;1.50;;;20.70;99.90;;;;;;5001944;28;20187;-75
2022/08/12 01:19:22;;;;;;;2.28;1.20;;;20.70;99.90;;;;;;5001214;28;20254;-75
2022/08/12 01:22:15;;;;;;;5.07;1.67;;;20.60;99.90;;;;;;5002547;28;20648;-74
2022/08/12 01:25:08;;;;;;;4.43;1.25;;;20.60;99.90;;;;;;5005376;28;20231;-76
2022/08/12 01:27:57;;;;;;;2.38;1.75;;;20.50;99.90;;;;;;4994070;28;20227;-77
2022/08/12 01:30:42;;;;;;;5.45;1.20;;;20.50;99.90;;;;;;4990333;28;20211;-74
2022/08/12 01:33:36;;;;;;;5.45;1.60;;;20.50;99.90;;;;;;4990577;28;20248;-75
2022/08/12 01:36:24;;;;;;;3.10;1.60;;;20.40;99.90;;;;;;4988856;28;20919;-76
2022/08/12 01:39:09;;;;;;;6.45;1.60;;;20.50;99.90;;;;;;4988533;28;20188;-73
2022/08/12 01:42:01;;;;;;;3.70;1.25;;;20.40;99.90;;;;;;4996105;28;20231;-74
2022/08/12 01:44:47;;;;;;;1.83;1.40;;;20.40;99.90;;;;;;4998341;28;20407;-75
2022/08/12 01:47:55;;;;;;;6.72;1.77;;;20.40;99.90;;;;;;5009310;28;20714;-75
2022/08/12 01:51:05;;;;;;;4.15;1.38;;;20.30;99.90;;;;;;5005094;28;20270;-74
2022/08/12 01:54:03;;;;;;;6.45;1.73;;;20.30;99.90;;;;;;4991887;28;20236;-75
2022/08/12 01:57:04;;;;;;;3.83;1.50;;;20.30;99.90;;;;;;4994913;28;20239;-76
2022/08/12 01:59:58;;;;;;;2.03;1.40;;;20.20;99.90;;;;;;5004956;28;20680;-76
2022/08/12 02:03:16;;;;;;;4.72;1.90;;;20.20;99.90;;;;;;5007640;28;21039;-75
2022/08/12 02:12:50;;;;;;;3.55;1.42;;;20.00;99.90;;;;;;5004586;28;20204;-75
2022/08/12 02:15:40;;;;;;;4.07;1.45;;;20.00;99.90;;;;;;5004472;28;20196;-77
2022/08/12 02:18:35;;;;;;;8.05;2.50;;;20.00;99.90;;;;;;4989029;28;20235;-75
2022/08/12 02:21:45;;;;;;;2.92;1.48;;;19.90;99.90;;;;;;4987213;28;20704;-75
2022/08/12 02:24:32;;;;;;;3.42;1.42;;;19.90;99.90;;;;;;5004373;28;20231;-75
2022/08/12 02:27:18;;;;;;;4.50;2.00;;;19.90;99.90;;;;;;5005167;28;20187;-76
2022/08/12 02:30:04;;;;;;;4.25;1.50;;;19.80;99.90;;;;;;4987615;28;20211;-76
2022/08/12 02:32:52;;;;;;;1.63;1.52;;;19.80;99.90;;;;;;5009434;28;20216;-75
2022/08/12 02:35:38;;;;;;;3.88;1.80;;;19.80;99.90;;;;;;4990184;28;20296;-75
2022/08/12 02:38:24;;;;;;;2.38;1.52;;;19.70;99.90;;;;;;4997065;28;20257;-75
2022/08/12 02:41:11;;;;;;;5.72;1.55;;;19.70;99.90;;;;;;4991804;28;20326;-76
2022/08/12 02:44:01;;;;;;;5.90;1.70;;;19.60;99.90;;;;;;5004569;28;20236;-75
2022/08/12 02:46:51;;;;;;;8.98;2.10;;;19.60;99.90;;;;;;5004992;28;20203;-75
2022/08/12 02:49:43;;;;;;;3.92;1.98;;;19.60;99.90;;;;;;4988604;28;20219;-75
2022/08/12 02:52:28;;;;;;;2.70;1.40;;;19.60;99.90;;;;;;4989534;28;20406;-75
2022/08/12 02:55:20;;;;;;;4.15;1.40;;;19.50;99.90;;;;;;4993945;28;20201;-75
2022/08/12 02:58:08;;;;;;;2.22;1.42;;;19.40;99.90;;;;;;5000601;28;20226;-75
2022/08/12 03:00:52;;;;;;;3.63;1.70;;;19.40;99.90;;;;;;4991926;28;20215;-75
2022/08/12 03:03:38;;;;;;;3.00;1.58;;;19.40;99.90;;;;;;5006677;28;20191;-75
2022/08/12 03:06:27;;;;;;;4.68;2.22;;;19.40;99.90;;;;;;5009206;28;20231;-75
2022/08/12 03:09:13;;;;;;;5.50;1.90;;;19.40;99.90;;;;;;5008127;28;20211;-75
2022/08/12 03:12:03;;;;;;;4.70;1.90;;;19.30;99.90;;;;;;5004469;28;20260;-75
2022/08/12 03:14:50;;;;;;;8.15;2.00;;;19.30;99.90;;;;;;4994219;28;20257;-76
2022/08/12 03:17:47;;;;;;;2.65;1.65;;;19.30;99.90;;;;;;4990949;28;20212;-76
2022/08/12 03:20:37;;;;;;;4.05;1.90;;;19.30;99.90;;;;;;5000240;28;20238;-77
2022/08/12 03:23:21;;;;;;;3.75;2.10;;;19.20;99.90;;;;;;4993153;28;20203;-76
2022/08/12 03:26:07;;;;;;;5.05;1.70;;;19.20;99.90;;;;;;4995448;28;20228;-76
2022/08/12 03:28:56;;;;;;;6.07;1.90;;;19.20;99.90;;;;;;4991975;28;20206;-76
2022/08/12 03:31:42;;;;;;;2.60;1.70;;;19.10;99.90;;;;;;4990434;28;20782;-76
2022/08/12 03:34:32;;;;;;;3.08;2.05;;;19.10;99.90;;;;;;4984542;28;20684;-75
2022/08/12 03:37:19;;;;;;;4.75;1.45;;;19.00;99.90;;;;;;5004240;28;20231;-73
2022/08/12 03:40:07;;;;;;;2.10;1.80;;;19.10;99.90;;;;;;4991171;28;20227;-73
2022/08/12 04:01:21;;;;;;;9.93;2.40;;;18.90;99.90;;;;;;5006596;28;20223;-75
2022/08/12 04:04:09;;;;;;;4.43;1.87;;;18.80;99.90;;;;;;4992291;28;20188;-75
2022/08/12 04:06:54;;;;;;;4.03;2.37;;;18.70;99.90;;;;;;4992553;28;20185;-75
2022/08/12 04:09:41;;;;;;;4.97;2.27;;;18.80;99.90;;;;;;4996798;28;20275;-76
2022/08/12 04:15:31;;;;;;;4.57;2.10;;;18.70;99.90;;;;;;5008661;28;20199;-76
2022/08/12 04:18:15;;;;;;;6.00;1.97;;;18.70;99.90;;;;;;4993323;28;20247;-75
2022/08/12 04:21:01;;;;;;;3.63;1.90;;;18.70;99.90;;;;;;5008738;28;20220;-75
2022/08/12 04:23:48;;;;;;;3.93;2.30;;;18.70;99.90;;;;;;4993013;28;20757;-75
2022/08/12 04:26:34;;;;;;;3.47;2.00;;;18.60;99.90;;;;;;4996508;28;20250;-75
2022/08/12 04:29:20;;;;;;;3.23;1.93;;;18.60;99.90;;;;;;4991006;28;20281;-75
2022/08/12 04:32:05;;;;;;;7.60;2.00;;;18.60;99.90;;;;;;4987337;28;20220;-75
2022/08/12 04:34:50;;;;;;;2.30;2.00;;;18.60;99.90;;;;;;4990853;28;20208;-75
2022/08/12 04:37:34;;;;;;;3.03;1.90;;;18.60;99.90;;;;;;4987531;28;20200;-75
2022/08/12 04:40:24;;;;;;;4.53;2.30;;;18.60;99.90;;;;;;4992505;28;20216;-75
2022/08/12 04:43:09;;;;;;;5.90;1.97;;;18.60;99.90;;;;;;4986684;28;20276;-75
2022/08/12 04:45:54;;;;;;;5.27;1.80;;;18.50;99.90;;;;;;4983172;28;20248;-74
2022/08/12 04:48:39;;;;;;;4.60;2.10;;;18.50;99.90;;;;;;4983753;28;20216;-75
2022/08/12 04:51:23;;;;;;;5.30;2.10;;;18.50;99.90;;;;;;4992372;28;20332;-76
2022/08/12 04:54:08;;;;;;;8.40;2.27;;;18.40;99.90;;;;;;4989594;28;20610;-74
2022/08/12 04:56:52;;;;;;;5.40;2.10;;;18.40;99.90;;;;;;5004775;28;20191;-74
2022/08/12 04:59:37;;;;;;;2.70;2.13;;;18.40;99.90;;;;;;4990996;28;20196;-74
2022/08/12 05:02:22;;;;;;;5.47;2.50;;;18.40;99.90;;;;;;4992113;28;20260;-76
2022/08/12 05:05:16;;;;;;;5.73;2.30;;;18.40;99.90;;;;;;4992778;28;20304;-75
2022/08/12 05:08:00;;;;;;;5.27;2.50;;;18.40;99.90;;;;;;4990651;28;20619;-76
2022/08/12 05:10:45;;;;;;;3.78;2.20;;;18.40;99.90;;;;;;4990941;28;20216;-76
2022/08/12 05:13:37;;;;;;;8.03;2.00;;;18.40;99.90;;;;;;4991077;28;20195;-74
2022/08/12 05:16:22;;;;;;;3.63;2.20;;;18.50;99.90;;;;;;4992619;28;20284;-76
2022/08/12 05:19:06;;;;;;;6.33;2.37;;;18.50;99.90;;;;;;5005621;28;20629;-75
2022/08/12 05:21:50;;;;;;;4.37;1.90;;;18.50;99.90;;;;;;4985696;28;20288;-75
2022/08/12 05:24:36;;;;;;;4.40;2.20;;;18.60;99.90;;;;;;4993187;28;20569;-76
2022/08/12 05:27:21;;;;;;;4.07;2.20;;;18.60;99.90;;;;;;4992442;28;20299;-73
2022/08/12 05:30:06;;;;;;;5.17;2.73;;;18.60;99.90;;;;;;4994064;28;20224;-77
2022/08/12 05:32:54;;;;;;;2.40;2.00;;;18.70;99.90;;;;;;5009853;28;20192;-76
2022/08/12 05:35:41;;;;;;;5.83;2.30;;;18.70;99.90;;;;;;4993172;28;20305;-78
2022/08/12 05:41:34;;;;;;;3.60;2.13;;;18.70;99.90;;;;;;5009152;28;20227;-76
2022/08/12 05:44:18;;;;;;;2.47;2.07;;;18.80;99.90;;;;;;4991857;28;20196;-73
2022/08/12 05:47:02;;;;;;;3.80;2.22;;;18.90;99.90;;;;;;4990781;28;20216;-75
2022/08/12 05:49:47;;;;;;;5.53;2.53;;;18.90;99.90;;;;;;4992304;28;20203;-75
2022/08/12 05:52:31;;;;;;;2.13;1.92;;;19.00;99.90;;;;;;4998903;28;20190;-74
2022/08/12 05:55:16;;;;;;;5.07;2.70;;;19.00;99.90;;;;;;5004506;28;20219;-75
2022/08/12 05:58:01;;;;;;;4.93;2.67;;;19.00;99.90;;;;;;4990338;28;20292;-75
2022/08/12 06:00:46;;;;;;;6.10;2.20;;;19.10;99.90;;;;;;5003612;28;20277;-75
2022/08/12 06:03:31;;;;;;;4.97;2.50;;;19.10;99.90;;;;;;4993306;28;20188;-75
2022/08/12 06:06:16;;;;;;;3.45;2.83;;;19.20;99.90;;;;;;5003530;28;20207;-75
2022/08/12 06:09:00;;;;;;;3.67;2.60;;;19.20;99.90;;;;;;5009216;28;20235;-76
2022/08/12 06:11:46;;;;;;;5.07;2.50;;;19.30;99.90;;;;;;4996530;28;20219;-76
2022/08/12 06:14:33;;;;;;;2.93;2.57;;;19.40;99.90;;;;;;4992872;28;20200;-76
2022/08/12 06:17:18;;;;;;;3.75;2.50;;;19.50;99.90;;;;;;4998225;28;20244;-76
2022/08/12 06:20:02;;;;;;;2.70;2.50;;;19.50;99.90;;;;;;4996134;28;20261;-76
2022/08/12 06:22:47;;;;;;;2.85;2.40;;;19.60;99.90;;;;;;4995696;28;20255;-76
2022/08/12 06:25:33;;;;;;;7.28;2.80;;;19.70;99.90;;;;;;4994377;28;20195;-76
2022/08/12 06:28:19;;;;;;;5.18;2.80;;;19.80;99.90;;;;;;4991695;28;20195;-76
2022/08/12 06:31:05;;;;;;;3.78;2.65;;;19.80;99.90;;;;;;4994699;28;20212;-76
2022/08/12 06:33:49;;;;;;;6.18;2.65;;;19.90;99.90;;;;;;4989958;28;20199;-75
2022/08/12 06:36:33;;;;;;;10.23;2.70;;;19.80;99.90;;;;;;4987764;28;20188;-77
2022/08/12 06:39:18;;;;;;;4.55;2.65;;;19.80;99.90;;;;;;5010279;28;20618;-76
2022/08/12 06:45:06;;;;;;;6.93;3.15;;;19.90;99.90;;;;;;5006324;28;20685;-77
2022/08/12 06:47:50;;;;;;;3.08;2.58;;;20.00;99.90;;;;;;4987201;28;20262;-76
2022/08/12 06:50:34;;;;;;;3.25;2.90;;;20.10;99.90;;;;;;4991954;28;20279;-76
2022/08/12 06:53:19;;;;;;;5.88;3.00;;;20.20;99.90;;;;;;4991069;28;20215;-75
2022/08/12 06:56:05;;;;;;;4.68;2.53;;;20.20;99.90;;;;;;4984878;28;20196;-75
2022/08/12 06:58:49;;;;;;;5.10;3.10;;;20.30;99.90;;;;;;4994876;28;20203;-76
2022/08/12 07:01:35;;;;;;;4.40;2.85;;;20.30;99.90;;;;;;4994111;28;20218;-77
2022/08/12 07:04:20;;;;;;;5.28;3.13;;;20.40;99.90;;;;;;4993049;28;20222;-76
2022/08/12 07:07:06;;;;;;;3.28;2.67;;;20.50;99.90;;;;;;4991983;28;20223;-76
2022/08/12 07:09:51;;;;;;;5.97;3.20;;;20.60;99.90;;;;;;5005361;28;20228;-76
2022/08/12 07:12:35;;;;;;;3.97;2.80;;;20.60;99.90;;;;;;4987109;28;20188;-76
2022/08/12 07:15:24;;;;;;;7.00;3.78;;;20.70;99.90;;;;;;4988738;28;20184;-76
2022/08/12 07:18:12;;;;;;;6.72;2.60;;;20.70;99.90;;;;;;4984050;28;20212;-78
2022/08/12 07:20:57;;;;;;;7.55;3.30;;;20.80;99.90;;;;;;4987074;28;20323;-74
2022/08/12 07:23:42;;;;;;;5.05;3.05;;;20.90;99.90;;;;;;4987599;28;20200;-76
2022/08/12 07:26:28;;;;;;;6.72;2.85;;;21.00;99.90;;;;;;5002242;28;20192;-75
2022/08/12 07:29:13;;;;;;;7.30;3.40;;;21.00;99.90;;;;;;5004977;28;20271;-74
2022/08/12 07:31:58;;;;;;;7.05;2.67;;;21.10;99.90;;;;;;4990452;28;20299;-74
2022/08/12 07:34:42;;;;;;;5.32;3.00;;;21.20;99.90;;;;;;4984176;28;20716;-76
2022/08/12 07:37:26;;;;;;;11.30;3.67;;;21.30;99.90;;;;;;4993400;28;20683;-76
2022/08/12 07:40:11;;;;;;;4.45;2.90;;;21.30;99.90;;;;;;4988828;28;20715;-76
2022/08/12 07:42:55;;;;;;;8.98;3.10;;;21.40;99.90;;;;;;4994384;28;20246;-76
2022/08/12 07:45:40;;;;;;;6.30;2.88;;;21.50;99.90;;;;;;5005677;28;20219;-75
2022/08/12 07:48:25;;;;;;;5.72;2.97;;;21.60;99.90;;;;;;4990866;28;20600;-76
2022/08/12 07:51:10;;;;;;;3.67;2.58;;;21.70;99.90;;;;;;4997757;28;20211;-77
2022/08/12 07:53:56;;;;;;;3.17;2.58;;;21.80;99.90;;;;;;5000138;28;20200;-77
2022/08/12 07:56:41;;;;;;;7.13;2.63;;;22.00;99.90;;;;;;4991063;28;20216;-75
2022/08/12 07:59:25;;;;;;;6.57;2.70;;;22.10;99.90;;;;;;5004489;28;20207;-75
2022/08/12 08:02:10;;;;;;;5.95;2.75;;;22.20;99.90;;;;;;4989921;28;20207;-75
2022/08/12 08:04:57;;;;;;;3.78;2.45;;;22.20;99.90;;;;;;4989591;28;20195;-75
2022/08/12 08:07:42;;;;;;;7.35;2.60;;;22.30;99.90;;;;;;4980592;28;20316;-76
2022/08/12 08:10:26;;;;;;;3.45;2.55;;;22.30;99.90;;;;;;4991496;28;20243;-77
2022/08/12 08:13:12;;;;;;;3.60;2.58;;;22.40;99.90;;;;;;4993902;28;20234;-77
2022/08/12 08:15:56;;;;;;;3.65;2.88;;;22.50;99.90;;;;;;4984120;28;20213;-77
2022/08/12 08:18:41;;;;;;;6.65;2.45;;;22.60;99.90;;;;;;4993477;28;20207;-75
2022/08/12 08:21:31;;;;;;;2.80;2.38;;;22.70;99.90;;;;;;4989731;28;20771;-76
2022/08/12 08:24:17;;;;;;;4.30;2.42;;;22.70;99.90;;;;;;5004957;28;20196;-76
2022/08/12 08:27:01;;;;;;;3.35;2.38;;;22.90;99.90;;;;;;5003057;28;20240;-77
2022/08/12 08:29:46;;;;;;;3.88;2.50;;;22.90;99.90;;;;;;4988727;28;20215;-75
2022/08/12 08:32:31;;;;;;;5.82;2.67;;;23.00;99.90;;;;;;4989751;28;20240;-77
2022/08/12 08:35:15;;;;;;;8.60;2.78;;;23.00;99.90;;;;;;4990966;28;20188;-77
2022/08/12 08:38:07;;;;;;;7.53;2.65;;;23.10;99.90;;;;;;4992899;28;20335;-77
2022/08/12 08:43:58;;;;;;;5.38;2.50;;;23.30;99.90;;;;;;5008759;28;20199;-76
2022/08/12 08:46:43;;;;;;;2.75;2.33;;;23.40;99.90;;;;;;4991066;28;20192;-77
2022/08/12 08:49:27;;;;;;;7.10;2.70;;;23.50;99.90;;;;;;4987012;28;20247;-76
2022/08/12 08:52:11;;;;;;;6.68;2.50;;;23.70;99.90;;;;;;4985210;28;20219;-74
2022/08/12 08:54:55;;;;;;;3.05;2.35;;;23.80;99.90;;;;;;4985513;28;20195;-75
2022/08/12 08:57:42;;;;;;;2.92;2.35;;;23.90;99.90;;;;;;5005008;28;20219;-74
2022/08/12 09:00:28;;;;;;;6.30;2.90;;;24.00;99.90;;;;;;4991686;28;20242;-75
2022/08/12 09:03:12;;;;;;;5.13;2.60;;;24.10;99.90;;;;;;4987125;28;20298;-73
2022/08/12 09:05:56;;;;;;;2.58;2.17;;;24.20;99.90;;;;;;4994409;28;20253;-74
2022/08/12 09:08:41;;;;;;;4.80;2.58;;;24.40;99.90;;;;;;4985198;28;20286;-74
2022/08/12 09:14:29;;;;;;;2.95;2.40;;;24.50;99.90;;;;;;4999755;28;20196;-75
2022/08/12 09:17:14;;;;;;;4.32;2.63;;;24.70;99.90;;;;;;4999405;28;20196;-74
2022/08/12 09:19:58;;;;;;;5.40;2.28;;;24.70;99.90;;;;;;4984285;28;20277;-74
2022/08/12 09:22:42;;;;;;;2.72;2.30;;;24.80;99.90;;;;;;4984570;28;20192;-74
2022/08/12 09:25:30;;;;;;;4.25;2.20;;;24.90;99.90;;;;;;4986512;28;20270;-76
2022/08/12 09:28:15;;;;;;;3.13;2.28;;;25.00;99.90;;;;;;5002356;28;20280;-73
2022/08/12 09:30:59;;;;;;;7.05;2.47;;;25.10;99.90;;;;;;4978259;28;20778;-74
2022/08/12 09:33:43;;;;;;;3.05;2.15;;;25.10;99.90;;;;;;4984109;28;20195;-75
2022/08/12 09:36:27;;;;;;;2.65;2.08;;;25.20;99.90;;;;;;4980739;28;20266;-77
2022/08/12 09:39:12;;;;;;;4.07;2.05;;;25.20;99.90;;;;;;4990253;28;20203;-76
2022/08/12 09:48:07;;;;;;;6.75;2.05;;;25.50;99.90;;;;;;5004987;28;20242;-76
2022/08/12 09:50:52;;;;;;;2.78;2.05;;;25.50;99.90;;;;;;4990245;28;20244;-77
2022/08/12 09:53:36;;;;;;;3.20;2.30;;;25.60;99.90;;;;;;5006836;28;20547;-77
2022/08/12 09:56:22;;;;;;;4.47;2.15;;;25.70;99.90;;;;;;5011555;28;20231;-76
2022/08/12 09:59:08;;;;;;;3.78;2.22;;;25.80;99.90;;;;;;4993374;28;20199;-77
2022/08/12 10:01:54;;;;;;;3.88;2.10;;;25.90;99.90;;;;;;4993661;28;20263;-77
2022/08/12 10:04:47;;;;;;;2.90;2.20;;;25.90;99.90;;;;;;4991524;28;20222;-77
2022/08/12 10:07:31;;;;;;;2.78;2.10;;;26.00;99.90;;;;;;4993549;28;20197;-78
2022/08/12 10:10:16;;;;;;;3.85;2.58;;;26.00;99.90;;;;;;5010708;28;20267;-77
2022/08/12 10:16:03;;;;;;;3.33;2.03;;;26.20;99.90;;;;;;5008870;28;20286;-78
2022/08/12 10:18:53;;;;;;;3.00;2.20;;;26.30;99.90;;;;;;5005635;28;20196;-78
2022/08/12 10:21:40;;;;;;;2.03;1.83;;;26.40;99.90;;;;;;5004572;28;20246;-77
2022/08/12 10:24:24;;;;;;;3.83;2.05;;;26.60;99.90;;;;;;4991580;28;20188;-78
2022/08/12 10:30:12;;;;;;;3.45;2.20;;;26.70;99.90;;;;;;5011521;28;20228;-77
2022/08/12 10:32:57;;;;;;;3.22;1.52;;;26.70;99.90;;;;;;5010515;28;20607;-78
2022/08/12 10:35:42;;;;;;;4.78;1.63;;;26.70;99.90;;;;;;4998488;28;20767;-77
2022/08/12 10:38:27;;;;;;;6.55;2.10;;;26.70;99.90;;;;;;4993518;28;20220;-78
2022/08/12 10:44:15;;;;;;;3.80;1.50;;;26.90;99.90;;;;;;5002429;28;20207;-78
2022/08/12 10:47:00;;;;;;;5.68;2.00;;;27.00;99.90;;;;;;4990192;28;20196;-78
2022/08/12 10:49:45;;;;;;;2.05;1.55;;;27.10;99.90;;;;;;4995367;28;20591;-77
2022/08/12 10:52:29;;;;;;;8.20;2.10;;;27.20;99.90;;;;;;4992314;28;20200;-77
2022/08/12 10:55:14;;;;;;;4.50;1.85;;;27.30;99.90;;;;;;5005012;28;20196;-77
2022/08/12 10:58:00;;;;;;;2.58;1.30;;;27.30;99.90;;;;;;5010946;28;20196;-78
2022/08/12 11:00:44;;;;;;;1.85;1.48;;;27.40;99.90;;;;;;4996879;28;20223;-78
2022/08/12 11:03:33;;;;;;;2.65;1.40;;;27.40;99.90;;;;;;4998834;28;20196;-77
2022/08/12 11:06:20;;;;;;;4.20;1.40;;;27.50;99.90;;;;;;5009428;28;20268;-79
2022/08/12 11:09:04;;;;;;;4.07;1.33;;;27.50;99.90;;;;;;4999440;28;20211;-78
2022/08/12 11:11:49;;;;;;;3.83;1.48;;;27.60;99.90;;;;;;5002221;28;20216;-79
2022/08/12 11:14:35;;;;;;;8.02;1.73;;;27.70;99.90;;;;;;4988446;28;20204;-77
2022/08/12 11:17:20;;;;;;;3.83;1.10;;;27.80;99.90;;;;;;4986234;28;20203;-77
2022/08/12 11:20:04;;;;;;;3.70;1.40;;;27.90;99.90;;;;;;4996079;28;20215;-78
2022/08/12 11:22:56;;;;;;;4.38;1.48;;;27.90;99.90;;;;;;4990302;28;20188;-77
2022/08/12 11:25:44;;;;;;;1.77;1.17;;;27.90;99.90;;;;;;4986262;28;20207;-77
2022/08/12 11:28:28;;;;;;;2.78;1.42;;;28.00;99.90;;;;;;4993376;28;20188;-78
2022/08/12 11:31:12;;;;;;;4.40;1.55;;;28.00;99.90;;;;;;5010131;28;20224;-77
2022/08/12 11:33:56;;;;;;;1.77;1.42;;;28.10;99.90;;;;;;4997181;28;20710;-78
2022/08/12 11:36:55;;;;;;;4.50;1.20;;;28.20;99.90;;;;;;4993477;28;20218;-77
2022/08/12 11:39:40;;;;;;;2.55;1.30;;;28.30;99.90;;;;;;4987684;28;20275;-77
2022/08/12 11:42:24;;;;;;;1.40;1.30;;;28.30;99.90;;;;;;5004807;28;20219;-77
2022/08/12 11:45:09;;;;;;;2.13;1.60;;;28.20;99.90;;;;;;5003183;28;20657;-76
2022/08/12 11:47:55;;;;;;;2.25;1.50;;;28.20;99.90;;;;;;5004763;28;20196;-78
2022/08/12 11:50:42;;;;;;;4.07;1.45;;;28.20;99.90;;;;;;4988599;28;20251;-78
2022/08/12 11:53:26;;;;;;;9.85;2.45;;;28.30;99.90;;;;;;4993998;28;20231;-78
2022/08/12 11:56:10;;;;;;;3.85;1.73;;;28.40;99.90;;;;;;4991202;28;20184;-78
2022/08/12 11:58:55;;;;;;;2.55;1.20;;;28.50;99.90;;;;;;5003166;28;20192;-78
2022/08/12 12:01:39;;;;;;;3.80;1.58;;;28.50;99.90;;;;;;5002514;28;20223;-78
2022/08/12 12:04:23;;;;;;;3.03;1.35;;;28.50;99.90;;;;;;4991524;28;20195;-79
2022/08/12 12:07:07;;;;;;;3.50;1.65;;;28.60;99.90;;;;;;4991299;28;20195;-78
2022/08/12 12:09:51;;;;;;;1.40;1.30;;;28.60;99.90;;;;;;4988112;28;20258;-78
2022/08/12 12:12:35;;;;;;;1.83;1.33;;;28.60;99.90;;;;;;4991904;28;20235;-78
2022/08/12 12:15:19;;;;;;;3.10;1.23;;;28.60;99.90;;;;;;4991415;28;20272;-79
2022/08/12 12:18:05;;;;;;;1.55;1.45;;;28.60;99.90;;;;;;4993056;28;20271;-78
2022/08/12 12:20:53;;;;;;;2.80;1.30;;;28.60;99.90;;;;;;5005799;28;20215;-79
2022/08/12 12:23:38;;;;;;;3.72;1.50;;;28.70;99.90;;;;;;4989784;28;20204;-79
2022/08/12 12:26:22;;;;;;;1.95;1.55;;;28.90;99.90;;;;;;5010214;28;20252;-79
2022/08/12 12:29:06;;;;;;;1.52;1.40;;;29.00;99.90;;;;;;4994323;28;20219;-76
2022/08/12 12:31:50;;;;;;;1.70;1.40;;;29.00;99.90;;;;;;4986698;28;20215;-77
2022/08/12 12:34:34;;;;;;;4.22;1.45;;;29.00;99.90;;;;;;4984016;28;20608;-78
2022/08/12 12:37:19;;;;;;;2.58;1.33;;;29.00;99.90;;;;;;4988840;28;20200;-77
2022/08/12 12:40:03;;;;;;;4.30;1.55;;;29.00;99.90;;;;;;4989182;28;20580;-77
2022/08/12 12:42:48;;;;;;;2.60;1.55;;;28.90;99.90;;;;;;4985908;28;20214;-77
2022/08/12 12:45:34;;;;;;;1.92;1.30;;;28.90;99.90;;;;;;4993440;28;20532;-78
2022/08/12 12:48:20;;;;;;;3.20;1.45;;;28.90;99.90;;;;;;5003869;28;20227;-77
2022/08/12 12:51:16;;;;;;;2.80;1.60;;;28.90;99.90;;;;;;4984693;28;20224;-77
2022/08/12 12:54:01;;;;;;;2.17;1.33;;;29.00;99.90;;;;;;4991817;28;20219;-78
2022/08/12 12:56:48;;;;;;;1.90;1.30;;;29.10;99.90;;;;;;4989598;28;20695;-77
2022/08/12 12:59:32;;;;;;;1.50;1.40;;;29.00;99.90;;;;;;4985871;28;20188;-79
2022/08/12 13:02:17;;;;;;;2.45;1.23;;;29.10;99.90;;;;;;5003292;28;20191;-79
2022/08/12 13:05:01;;;;;;;3.25;1.48;;;29.20;99.90;;;;;;4990063;28;20299;-78
2022/08/12 13:07:46;;;;;;;1.92;1.58;;;29.20;99.90;;;;;;4993618;28;20676;-78
2022/08/12 13:10:31;;;;;;;2.22;1.33;;;29.10;99.90;;;;;;5001874;28;20222;-78
2022/08/12 13:13:17;;;;;;;2.63;1.38;;;29.10;99.90;;;;;;5012375;28;20196;-78
2022/08/12 13:16:02;;;;;;;5.15;1.40;;;29.10;99.90;;;;;;4997138;28;20191;-77
2022/08/12 13:18:48;;;;;;;3.58;1.50;;;29.20;99.90;;;;;;4991381;28;20220;-79
2022/08/12 13:21:32;;;;;;;2.00;1.50;;;29.20;99.90;;;;;;4994446;28;20236;-79
2022/08/12 13:24:17;;;;;;;1.50;1.38;;;29.20;99.90;;;;;;4995792;28;20266;-79
2022/08/12 13:27:01;;;;;;;4.32;1.60;;;29.30;99.90;;;;;;5015558;28;20187;-79
2022/08/12 13:29:46;;;;;;;3.58;1.48;;;29.30;99.90;;;;;;4999671;28;20211;-80
2022/08/12 13:32:30;;;;;;;2.05;1.40;;;29.40;99.90;;;;;;5011960;28;20263;-78
2022/08/12 13:35:15;;;;;;;3.38;1.55;;;29.50;99.90;;;;;;5017440;28;20192;-79
2022/08/12 13:38:01;;;;;;;2.90;1.30;;;29.50;99.90;;;;;;5000765;28;20219;-78
2022/08/12 13:40:45;;;;;;;1.83;1.38;;;29.60;99.90;;;;;;5010716;28;20255;-79
2022/08/12 13:43:30;;;;;;;2.58;1.63;;;29.60;99.90;;;;;;5001940;28;20254;-79
2022/08/12 13:46:15;;;;;;;2.60;1.52;;;29.70;99.90;;;;;;4995057;28;20203;-78
2022/08/12 13:49:01;;;;;;;4.30;1.70;;;29.70;99.90;;;;;;5015758;28;20279;-80
2022/08/12 13:51:51;;;;;;;5.18;1.40;;;29.70;99.90;;;;;;5002617;28;20239;-80
2022/08/12 13:54:36;;;;;;;2.22;1.30;;;29.70;99.90;;;;;;5003788;28;20223;-81
2022/08/12 13:57:20;;;;;;;3.15;1.55;;;29.60;99.90;;;;;;5012130;28;20221;-81
2022/08/12 14:00:08;;;;;;;1.60;1.50;;;29.70;99.90;;;;;;5015169;28;20235;-80
2022/08/12 14:02:52;;;;;;;4.47;1.65;;;29.70;99.90;;;;;;4996877;28;20195;-80
2022/08/12 14:05:37;;;;;;;5.18;1.60;;;29.70;99.90;;;;;;4995623;28;20279;-79
2022/08/12 14:08:21;;;;;;;1.60;1.50;;;29.70;99.90;;;;;;5006485;28;20203;-79
2022/08/12 14:11:06;;;;;;;4.55;1.80;;;29.80;99.90;;;;;;4992268;28;20220;-78
2022/08/12 14:13:51;;;;;;;3.33;1.65;;;29.80;99.90;;;;;;4991315;28;20566;-78
2022/08/12 14:16:35;;;;;;;1.88;1.60;;;29.80;99.90;;;;;;5002291;28;20235;-78
2022/08/12 14:19:19;;;;;;;3.03;2.00;;;29.80;99.90;;;;;;5009256;28;20188;-78
2022/08/12 14:22:03;;;;;;;6.63;2.15;;;29.80;99.90;;;;;;4994977;28;20220;-79
2022/08/12 14:24:48;;;;;;;2.50;1.70;;;29.80;99.90;;;;;;4992083;28;20250;-78
2022/08/12 14:27:32;;;;;;;2.40;1.60;;;29.80;99.90;;;;;;5009819;28;20204;-79
2022/08/12 14:30:16;;;;;;;3.85;1.50;;;29.90;99.90;;;;;;4994636;28;20262;-78
2022/08/12 14:33:01;;;;;;;1.52;1.35;;;30.00;99.90;;;;;;4995079;28;20341;-79
2022/08/12 14:35:46;;;;;;;4.38;1.80;;;30.00;99.90;;;;;;4998477;28;20259;-78
2022/08/12 14:38:36;;;;;;;4.53;1.50;;;30.00;99.90;;;;;;5011984;28;20204;-78
2022/08/12 14:41:24;;;;;;;1.85;1.45;;;30.10;99.90;;;;;;4994030;28;20274;-78
2022/08/12 14:44:08;;;;;;;2.40;1.75;;;30.20;99.90;;;;;;4994384;28;20200;-78
2022/08/12 14:46:57;;;;;;;1.83;1.50;;;30.20;99.90;;;;;;5007413;28;20698;-78
2022/08/12 14:49:41;;;;;;;3.10;1.65;;;30.30;99.90;;;;;;4995622;28;20212;-78
2022/08/12 14:52:25;;;;;;;4.60;1.35;;;30.30;99.90;;;;;;4989619;28;20283;-77
2022/08/12 14:55:09;;;;;;;3.45;1.60;;;30.30;99.90;;;;;;4995371;28;20196;-77
2022/08/12 14:57:54;;;;;;;2.58;1.50;;;30.30;99.90;;;;;;5003006;28;20325;-76
2022/08/12 15:03:43;;;;;;;3.15;1.90;;;30.20;99.60;;;;;;5002615;28;20267;-76
2022/08/12 15:06:27;;;;;;;9.80;1.95;;;30.20;99.90;;;;;;5006326;28;20268;-77
2022/08/12 15:09:13;;;;;;;4.68;2.50;;;30.20;99.80;;;;;;4987413;28;20652;-78
2022/08/12 15:11:57;;;;;;;2.30;1.60;;;30.20;99.90;;;;;;4992018;28;20258;-75
2022/08/12 15:14:41;;;;;;;4.07;1.70;;;30.20;99.60;;;;;;4998775;28;20183;-79
2022/08/12 15:17:26;;;;;;;9.88;2.00;;;30.10;99.10;;;;;;4990382;28;20228;-79
2022/08/12 15:20:10;;;;;;;3.45;1.48;;;30.10;99.60;;;;;;4996477;28;20219;-79
2022/08/12 15:22:55;;;;;;;2.78;1.55;;;30.10;99.30;;;;;;5013801;28;20199;-79
2022/08/12 15:25:40;;;;;;;1.90;1.48;;;30.10;98.90;;;;;;4991252;28;20188;-79
2022/08/12 15:28:27;;;;;;;2.15;1.70;;;30.20;98.30;;;;;;5011865;28;20200;-79
2022/08/12 15:31:15;;;;;;;2.67;1.45;;;30.20;98.40;;;;;;5013897;28;20216;-79
2022/08/12 15:33:59;;;;;;;4.60;1.60;;;30.20;98.10;;;;;;5001375;28;20192;-79
2022/08/12 15:36:43;;;;;;;2.40;1.58;;;30.20;97.70;;;;;;4997030;28;20212;-79
2022/08/12 15:39:27;;;;;;;5.07;1.63;;;30.30;97.60;;;;;;5007863;28;20292;-79
2022/08/12 15:42:11;;;;;;;1.40;1.30;;;30.20;97.20;;;;;;4999125;28;20315;-78
2022/08/12 15:44:55;;;;;;;4.72;1.38;;;30.20;97.10;;;;;;5011428;28;20273;-79
2022/08/12 15:47:39;;;;;;;1.50;1.33;;;30.20;97.60;;;;;;4999486;28;20226;-79
2022/08/12 15:50:26;;;;;;;5.38;1.50;;;30.30;97.50;;;;;;4992238;28;20227;-79
2022/08/12 15:53:14;;;;;;;3.42;1.42;;;30.30;97.00;;;;;;4998645;28;20572;-79
2022/08/12 15:55:58;;;;;;;8.25;1.65;;;30.30;96.90;;;;;;4997166;28;20223;-79
2022/08/12 15:58:42;;;;;;;3.55;1.50;;;30.30;96.70;;;;;;4994870;28;20187;-79
2022/08/12 16:01:29;;;;;;;3.67;1.58;;;30.30;96.70;;;;;;5012669;28;20232;-79
2022/08/12 16:04:14;;;;;;;1.88;1.20;;;30.30;96.70;;;;;;4992937;28;20200;-79
2022/08/12 16:06:58;;;;;;;2.92;1.40;;;30.30;97.10;;;;;;4995433;28;20251;-78
2022/08/12 16:09:43;;;;;;;2.60;1.58;;;30.30;97.00;;;;;;4998445;28;20228;-79
2022/08/12 16:12:29;;;;;;;4.03;1.60;;;30.30;96.70;;;;;;4992549;28;20203;-79
2022/08/12 16:15:15;;;;;;;1.38;1.10;;;30.30;96.60;;;;;;4992205;28;20207;-79